Time;durP1;ratioP1;P1;durP2;ratioP2;P2;SDS_P1;SDS_P2;PMS_P1;PMS_P2;Temp;Humidity;BMP_temperature;BMP_pressure;BME280_temperature;BME280_humidity;BME280_pressure;Samples;Min_cycle;Max_cycle;Signal;HPM_P1;HPM_P2
2022/10/09 00:00:44;;;;;;;9.32;5.10;;;;;;;17.09;100.00;102375.53;5010443;28;20079;-49
2022/10/09 00:03:09;;;;;;;16.15;5.25;;;;;;;16.84;100.00;102379.53;5000646;28;20042;-52
2022/10/09 00:05:35;;;;;;;13.07;5.07;;;;;;;16.84;100.00;102379.53;5020703;28;20022;-50
2022/10/09 00:08:00;;;;;;;10.20;5.30;;;;;;;16.78;100.00;102386.56;5003366;28;20039;-52
2022/10/09 00:10:26;;;;;;;14.03;5.30;;;;;;;16.87;100.00;102372.91;4996438;28;20030;-51
2022/10/09 00:12:52;;;;;;;16.90;6.75;;;;;;;16.90;100.00;102373.31;5016774;28;20061;-51
2022/10/09 00:15:17;;;;;;;18.67;6.83;;;;;;;16.81;100.00;102374.53;5000050;28;20039;-54
2022/10/09 00:17:43;;;;;;;10.73;6.07;;;;;;;16.79;100.00;102373.91;5007839;28;20277;-52
2022/10/09 00:20:09;;;;;;;16.33;5.70;;;;;;;16.82;100.00;102373.50;5006821;28;20093;-50
2022/10/09 00:22:35;;;;;;;22.60;7.33;;;;;;;16.79;100.00;102371.19;5004580;28;20050;-50
2022/10/09 00:25:01;;;;;;;12.77;6.68;;;;;;;16.81;100.00;102384.47;5015053;28;20333;-50
2022/10/09 00:27:26;;;;;;;14.45;6.32;;;;;;;16.80;100.00;102380.13;5005687;28;20069;-51
2022/10/09 00:29:52;;;;;;;13.07;5.97;;;;;;;16.78;100.00;102381.16;5022353;28;20034;-50
2022/10/09 00:32:17;;;;;;;16.03;5.90;;;;;;;16.63;100.00;102377.75;5003414;28;20328;-49
2022/10/09 00:34:43;;;;;;;11.70;5.50;;;;;;;16.62;100.00;102381.50;5009620;28;20038;-53
2022/10/09 00:37:08;;;;;;;16.67;5.90;;;;;;;16.66;100.00;102388.16;5008388;28;20037;-51
2022/10/09 00:39:35;;;;;;;12.40;5.45;;;;;;;16.58;100.00;102377.50;5008809;28;20027;-50
2022/10/09 00:42:01;;;;;;;14.07;5.22;;;;;;;16.63;100.00;102377.75;5010048;28;20033;-50
2022/10/09 00:44:45;;;;;;;11.27;5.73;;;;;;;16.57;100.00;102375.81;5000234;28;20039;-50
2022/10/09 00:47:19;;;;;;;13.50;5.13;;;;;;;16.58;100.00;102380.19;5010929;28;20063;-55
2022/10/09 00:49:47;;;;;;;14.57;5.43;;;;;;;16.66;100.00;102369.25;5004790;28;20076;-51
2022/10/09 00:52:12;;;;;;;11.75;5.70;;;;;;;16.61;100.00;102367.13;5006297;28;20081;-51
2022/10/09 00:54:40;;;;;;;14.93;5.03;;;;;;;16.56;100.00;102376.84;5004970;28;20030;-49
2022/10/09 00:57:06;;;;;;;18.08;5.60;;;;;;;16.52;100.00;102362.09;5000771;28;20034;-51
2022/10/09 00:59:33;;;;;;;10.20;4.72;;;;;;;16.37;100.00;102368.41;5005494;28;20027;-47
2022/10/09 01:01:59;;;;;;;16.33;6.28;;;;;;;16.41;100.00;102372.41;5008114;28;20064;-52
2022/10/09 01:04:24;;;;;;;12.23;5.37;;;;;;;16.43;100.00;102373.06;5015744;28;20034;-48
2022/10/09 01:06:58;;;;;;;11.83;5.97;;;;;;;16.15;100.00;102363.09;5008507;28;20034;-53
2022/10/09 01:09:49;;;;;;;15.20;6.07;;;;;;;16.20;100.00;102366.03;5007166;28;20295;-47
2022/10/09 01:12:52;;;;;;;17.05;5.50;;;;;;;16.20;100.00;102362.50;4997445;28;20046;-52
2022/10/09 01:15:32;;;;;;;17.48;6.32;;;;;;;16.21;100.00;102361.47;5003220;28;20026;-54
2022/10/09 01:18:08;;;;;;;13.25;5.75;;;;;;;16.25;100.00;102362.72;5009319;28;20041;-48
2022/10/09 01:20:45;;;;;;;15.48;6.53;;;;;;;16.23;100.00;102364.78;5005034;28;20027;-51
2022/10/09 01:23:30;;;;;;;16.80;6.30;;;;;;;15.99;100.00;102366.06;5001952;28;20035;-53
2022/10/09 01:26:08;;;;;;;12.82;5.97;;;;;;;16.14;100.00;102363.28;5011084;28;20031;-54
2022/10/09 01:28:35;;;;;;;14.60;5.40;;;;;;;16.04;100.00;102353.66;5003062;28;20038;-51
2022/10/09 01:31:03;;;;;;;18.70;7.88;;;;;;;15.94;100.00;102363.13;5004497;28;20037;-55
2022/10/09 01:33:31;;;;;;;18.55;6.20;;;;;;;15.85;100.00;102355.13;5011814;28;20037;-51
2022/10/09 01:35:59;;;;;;;15.40;5.47;;;;;;;15.88;100.00;102354.75;5005007;28;20043;-52
2022/10/09 01:38:27;;;;;;;17.58;5.72;;;;;;;15.88;100.00;102349.34;5004534;28;20038;-51
2022/10/09 01:40:54;;;;;;;20.10;6.68;;;;;;;15.84;100.00;102348.06;5004425;28;20098;-49
2022/10/09 01:43:20;;;;;;;18.83;7.10;;;;;;;15.80;100.00;102348.63;5005932;28;20039;-50
2022/10/09 01:45:47;;;;;;;14.87;6.90;;;;;;;15.82;100.00;102352.81;5001373;28;20045;-50
2022/10/09 01:48:20;;;;;;;11.55;5.88;;;;;;;15.59;100.00;102334.97;5009647;28;20054;-52
2022/10/09 01:50:53;;;;;;;15.57;6.65;;;;;;;15.72;100.00;102341.53;5006617;28;20071;-51
2022/10/09 01:53:20;;;;;;;17.45;6.72;;;;;;;15.71;100.00;102337.97;5001115;28;20080;-51
2022/10/09 01:55:58;;;;;;;21.10;6.20;;;;;;;15.60;100.00;102342.03;5008997;28;20034;-49
2022/10/09 01:58:35;;;;;;;13.65;6.50;;;;;;;15.56;100.00;102332.66;4998954;28;20058;-54
2022/10/09 02:01:20;;;;;;;11.43;5.95;;;;;;;15.59;100.00;102332.25;5015313;28;20061;-51
2022/10/09 02:03:49;;;;;;;11.80;5.57;;;;;;;15.41;100.00;102334.56;4993989;28;20034;-53
2022/10/09 02:06:17;;;;;;;20.00;6.43;;;;;;;15.19;100.00;102334.53;5007365;28;20066;-52
2022/10/09 02:08:45;;;;;;;13.65;6.15;;;;;;;15.29;100.00;102324.28;4999533;28;20421;-52
2022/10/09 02:11:13;;;;;;;15.80;7.13;;;;;;;15.35;100.00;102328.09;5001955;28;20102;-52
2022/10/09 02:13:40;;;;;;;13.10;7.45;;;;;;;15.16;100.00;102330.38;5011323;28;20059;-47
2022/10/09 02:16:17;;;;;;;16.10;7.78;;;;;;;15.32;100.00;102318.53;5008369;28;20038;-49
2022/10/09 02:18:45;;;;;;;18.17;5.97;;;;;;;15.10;100.00;102320.34;4999699;28;20039;-50
2022/10/09 02:21:25;;;;;;;22.77;7.28;;;;;;;15.36;100.00;102326.22;5014850;28;20050;-50
2022/10/09 02:23:56;;;;;;;18.40;5.95;;;;;;;15.45;100.00;102322.38;5003402;28;20022;-51
2022/10/09 02:26:22;;;;;;;19.23;5.88;;;;;;;15.48;100.00;102317.44;5017022;28;20109;-47
2022/10/09 02:28:48;;;;;;;19.05;6.68;;;;;;;15.46;100.00;102318.66;5005240;28;20038;-47
2022/10/09 02:31:29;;;;;;;14.57;6.72;;;;;;;15.42;100.00;102315.50;5006431;28;20065;-49
2022/10/09 02:34:00;;;;;;;13.25;6.63;;;;;;;15.44;100.00;102309.91;5007305;28;20027;-49
2022/10/09 02:36:27;;;;;;;19.05;6.57;;;;;;;15.26;100.00;102304.97;5002661;28;20042;-52
2022/10/09 02:38:54;;;;;;;18.95;6.68;;;;;;;15.31;100.00;102306.06;5003135;28;20031;-48
2022/10/09 02:41:21;;;;;;;14.82;7.20;;;;;;;15.30;100.00;102307.09;5012262;28;20035;-53
2022/10/09 02:43:46;;;;;;;21.70;7.40;;;;;;;15.05;100.00;102295.81;5011328;28;20039;-49
2022/10/09 02:46:11;;;;;;;20.03;6.87;;;;;;;15.12;100.00;102302.13;5002946;28;20110;-47
2022/10/09 02:48:37;;;;;;;11.13;5.78;;;;;;;15.30;100.00;102299.00;5000261;28;20043;-49
2022/10/09 02:51:03;;;;;;;13.47;5.73;;;;;;;15.18;100.00;102297.81;5000456;28;20038;-49
2022/10/09 02:53:29;;;;;;;31.83;7.10;;;;;;;15.03;100.00;102293.34;4996070;28;20066;-50
2022/10/09 02:55:55;;;;;;;23.52;6.65;;;;;;;14.82;100.00;102295.97;5018229;28;20038;-50
2022/10/09 02:58:20;;;;;;;16.23;6.57;;;;;;;14.77;100.00;102289.31;4999277;28;20041;-50
2022/10/09 03:00:48;;;;;;;19.08;7.03;;;;;;;14.74;100.00;102297.72;5005745;28;20050;-49
2022/10/09 03:03:14;;;;;;;18.38;7.30;;;;;;;14.73;100.00;102295.25;4997722;28;20047;-52
2022/10/09 03:05:39;;;;;;;15.50;6.33;;;;;;;14.96;100.00;102288.88;5017170;28;20098;-54
2022/10/09 03:08:04;;;;;;;16.17;6.67;;;;;;;14.72;100.00;102294.38;5004911;28;20090;-52
2022/10/09 03:10:31;;;;;;;15.70;5.83;;;;;;;14.65;100.00;102295.28;5001492;28;20031;-48
2022/10/09 03:12:57;;;;;;;14.23;6.18;;;;;;;14.54;100.00;102283.16;5013342;28;20035;-51
2022/10/09 03:15:23;;;;;;;17.48;6.35;;;;;;;14.69;100.00;102286.66;5005368;28;20057;-54
2022/10/09 03:17:48;;;;;;;10.27;5.43;;;;;;;14.69;100.00;102294.75;5008009;28;20036;-51
2022/10/09 03:20:14;;;;;;;22.17;8.23;;;;;;;14.69;100.00;102289.34;5006180;28;20050;-52
2022/10/09 03:22:39;;;;;;;12.80;7.05;;;;;;;14.65;100.00;102290.75;5002504;28;20113;-52
2022/10/09 03:25:05;;;;;;;17.27;6.90;;;;;;;14.60;100.00;102295.88;5008019;28;20045;-54
2022/10/09 03:27:31;;;;;;;19.58;7.38;;;;;;;14.44;100.00;102292.34;5003680;28;20030;-53
2022/10/09 03:29:57;;;;;;;22.47;7.30;;;;;;;14.30;100.00;102283.25;5006802;28;20031;-53
2022/10/09 03:32:23;;;;;;;23.25;7.53;;;;;;;14.36;100.00;102289.75;5006106;28;20038;-52
2022/10/09 03:34:49;;;;;;;19.10;7.28;;;;;;;14.68;100.00;102287.69;5004393;28;20049;-51
2022/10/09 03:37:14;;;;;;;25.93;7.43;;;;;;;14.59;100.00;102284.25;5002464;28;20034;-50
2022/10/09 03:39:40;;;;;;;20.47;7.87;;;;;;;14.39;100.00;102285.84;5012016;28;20366;-49
2022/10/09 03:42:05;;;;;;;20.47;7.73;;;;;;;14.21;100.00;102284.38;5005475;28;20045;-53
2022/10/09 03:44:31;;;;;;;22.20;8.93;;;;;;;14.39;100.00;102280.44;5006255;28;20061;-48
2022/10/09 03:46:57;;;;;;;23.23;7.43;;;;;;;14.47;100.00;102283.88;5009465;28;20272;-51
2022/10/09 03:49:23;;;;;;;16.60;8.07;;;;;;;14.44;100.00;102294.22;4994291;28;20047;-48
2022/10/09 03:51:48;;;;;;;22.07;8.93;;;;;;;14.38;100.00;102287.72;5005343;28;20332;-52
2022/10/09 03:54:13;;;;;;;18.50;6.90;;;;;;;14.19;100.00;102292.59;5006653;28;20037;-51
2022/10/09 03:56:39;;;;;;;20.80;8.63;;;;;;;13.83;100.00;102293.28;5012140;28;20035;-53
2022/10/09 03:59:06;;;;;;;21.33;7.10;;;;;;;14.10;100.00;102290.19;5012529;28;20304;-50
2022/10/09 04:01:32;;;;;;;22.08;8.15;;;;;;;13.96;100.00;102295.38;5002492;28;20045;-50
2022/10/09 04:03:58;;;;;;;24.30;8.00;;;;;;;13.64;100.00;102297.31;5016682;28;20039;-46
2022/10/09 04:06:23;;;;;;;21.43;8.33;;;;;;;13.87;100.00;102294.59;5002285;28;20053;-48
2022/10/09 04:08:48;;;;;;;20.13;7.83;;;;;;;13.95;100.00;102301.75;5004750;28;20279;-51
2022/10/09 04:11:14;;;;;;;16.75;7.47;;;;;;;13.88;100.00;102301.66;5006086;28;20030;-50
2022/10/09 04:13:40;;;;;;;17.83;9.23;;;;;;;14.00;100.00;102298.50;5003811;28;20077;-52
2022/10/09 04:16:08;;;;;;;25.90;7.80;;;;;;;14.18;100.00;102300.84;5007500;28;20277;-49
2022/10/09 04:18:33;;;;;;;25.42;8.32;;;;;;;14.40;100.00;102304.50;5004500;28;20046;-49
2022/10/09 04:20:59;;;;;;;19.17;9.07;;;;;;;14.36;100.00;102297.81;5013738;28;20143;-51
2022/10/09 04:23:25;;;;;;;15.37;8.40;;;;;;;14.39;100.00;102294.75;5010112;28;20269;-46
2022/10/09 04:25:53;;;;;;;22.15;7.43;;;;;;;14.20;100.00;102298.84;5009121;28;20073;-47
2022/10/09 04:28:19;;;;;;;24.55;8.13;;;;;;;14.16;100.00;102290.28;5005890;28;20064;-49
2022/10/09 04:30:44;;;;;;;18.77;8.60;;;;;;;14.22;100.00;102293.25;5007256;28;20035;-49
2022/10/09 04:33:10;;;;;;;26.97;8.87;;;;;;;14.05;100.00;102296.09;5005298;28;20038;-47
2022/10/09 04:35:35;;;;;;;20.70;7.93;;;;;;;13.77;100.00;102288.63;5004190;28;20269;-49
2022/10/09 04:38:01;;;;;;;21.33;8.00;;;;;;;13.86;100.00;102284.03;5008710;28;20107;-48
2022/10/09 04:40:26;;;;;;;22.57;8.53;;;;;;;13.83;100.00;102282.50;5009198;28;20054;-51
2022/10/09 04:42:52;;;;;;;19.83;8.27;;;;;;;13.83;100.00;102287.91;4999265;28;20280;-51
2022/10/09 04:45:17;;;;;;;20.37;8.03;;;;;;;13.73;100.00;102280.09;5011357;28;20031;-48
2022/10/09 04:47:43;;;;;;;20.40;8.37;;;;;;;14.13;100.00;102282.59;5009033;28;20042;-49
2022/10/09 04:50:09;;;;;;;24.20;8.23;;;;;;;13.82;100.00;102280.03;5006850;28;20375;-51
2022/10/09 04:52:34;;;;;;;16.13;8.02;;;;;;;13.66;100.00;102276.44;5012784;28;20073;-49
2022/10/09 04:54:59;;;;;;;14.03;7.67;;;;;;;13.81;100.00;102276.50;5013064;28;20035;-49
2022/10/09 04:57:25;;;;;;;20.77;8.20;;;;;;;13.87;100.00;102285.69;5007951;28;20100;-47
2022/10/09 04:59:50;;;;;;;27.10;8.90;;;;;;;13.73;100.00;102280.09;5006921;28;20034;-50
2022/10/09 05:02:15;;;;;;;20.27;8.73;;;;;;;13.91;100.00;102282.47;5007934;28;20041;-51
2022/10/09 05:04:41;;;;;;;16.10;8.33;;;;;;;13.83;100.00;102279.81;5010319;28;20039;-50
2022/10/09 05:07:06;;;;;;;18.77;9.90;;;;;;;13.65;100.00;102272.09;5003857;28;20038;-53
2022/10/09 05:09:32;;;;;;;18.83;8.13;;;;;;;13.42;100.00;102272.09;4999381;28;20038;-50
2022/10/09 05:11:57;;;;;;;22.93;9.40;;;;;;;13.64;100.00;102277.66;5006846;28;20106;-52
2022/10/09 05:14:23;;;;;;;22.27;8.60;;;;;;;13.69;100.00;102270.72;5006026;28;20268;-51
2022/10/09 05:16:51;;;;;;;21.53;8.40;;;;;;;14.03;100.00;102277.47;5009681;28;20035;-49
2022/10/09 05:19:17;;;;;;;20.77;8.23;;;;;;;14.00;100.00;102269.78;5011290;28;20121;-53
2022/10/09 05:21:43;;;;;;;20.80;10.53;;;;;;;14.08;100.00;102279.63;5000329;28;20034;-50
2022/10/09 05:24:08;;;;;;;17.10;7.97;;;;;;;14.07;100.00;102260.97;5008609;28;20035;-53
2022/10/09 05:26:34;;;;;;;20.07;8.57;;;;;;;14.10;100.00;102266.81;5008569;28;20339;-51
2022/10/09 05:28:59;;;;;;;14.33;7.87;;;;;;;14.10;100.00;102266.81;5000706;28;20042;-51
2022/10/09 05:31:27;;;;;;;17.90;8.73;;;;;;;14.07;100.00;102259.13;5013331;28;20036;-52
2022/10/09 05:33:54;;;;;;;18.50;8.25;;;;;;;14.03;100.00;102263.19;5003378;28;20280;-50
2022/10/09 05:36:20;;;;;;;23.15;8.80;;;;;;;14.04;100.00;102268.38;4999631;28;20053;-53
2022/10/09 05:38:46;;;;;;;16.08;7.75;;;;;;;13.97;100.00;102261.22;5008241;28;20039;-50
2022/10/09 05:41:14;;;;;;;16.65;7.88;;;;;;;14.00;100.00;102266.22;5001202;28;20049;-55
2022/10/09 05:43:42;;;;;;;20.27;8.20;;;;;;;14.03;100.00;102261.34;5011998;28;20041;-56
2022/10/09 05:46:19;;;;;;;16.95;8.15;;;;;;;14.00;100.00;102266.22;5008250;28;20042;-54
2022/10/09 05:48:50;;;;;;;18.70;8.02;;;;;;;13.89;100.00;102268.38;5011937;28;20042;-55
2022/10/09 05:51:21;;;;;;;24.50;8.70;;;;;;;13.90;100.00;102277.25;4998630;28;20042;-50
2022/10/09 05:53:48;;;;;;;19.77;8.52;;;;;;;13.85;100.00;102275.13;5001521;28;20213;-54
2022/10/09 05:56:24;;;;;;;16.88;8.05;;;;;;;13.88;100.00;102273.91;4998294;28;20041;-49
2022/10/09 05:58:51;;;;;;;23.17;8.73;;;;;;;13.88;100.00;102269.38;5016777;28;20125;-52
2022/10/09 06:01:19;;;;;;;24.92;8.55;;;;;;;13.81;100.00;102268.41;5003672;28;20095;-53
2022/10/09 06:03:49;;;;;;;16.65;7.97;;;;;;;13.86;100.00;102275.94;5000888;28;20102;-55
2022/10/09 06:06:16;;;;;;;19.75;8.38;;;;;;;13.77;100.00;102273.34;4992138;28;20049;-53
2022/10/09 06:08:42;;;;;;;27.17;9.13;;;;;;;13.73;100.00;102265.81;5001950;28;20071;-53
2022/10/09 06:11:16;;;;;;;18.67;7.83;;;;;;;13.78;100.00;102274.16;5006396;28;20039;-53
2022/10/09 06:13:42;;;;;;;14.63;8.38;;;;;;;13.83;100.00;102263.69;5006530;28;20054;-54
2022/10/09 06:16:13;;;;;;;19.83;8.30;;;;;;;13.79;100.00;102264.25;4998499;28;20035;-49
2022/10/09 06:18:39;;;;;;;15.63;8.77;;;;;;;13.81;100.00;102271.09;5004078;28;20031;-51
2022/10/09 06:21:06;;;;;;;14.30;7.65;;;;;;;13.85;100.00;102275.13;5003532;28;20032;-48
2022/10/09 06:23:31;;;;;;;17.77;7.80;;;;;;;13.93;100.00;102276.06;5011420;28;20030;-50
2022/10/09 06:25:59;;;;;;;18.27;7.90;;;;;;;14.04;100.00;102272.91;5012989;28;20042;-54
2022/10/09 06:28:27;;;;;;;21.30;9.02;;;;;;;13.97;100.00;102278.22;4999083;28;20042;-51
2022/10/09 06:30:58;;;;;;;17.77;8.02;;;;;;;13.94;100.00;102278.56;5007220;28;20118;-49
2022/10/09 06:33:23;;;;;;;19.20;8.20;;;;;;;13.90;100.00;102279.94;5008915;28;20034;-49
2022/10/09 06:35:49;;;;;;;17.73;7.40;;;;;;;13.95;100.00;102284.78;4999974;28;20043;-51
2022/10/09 06:38:16;;;;;;;17.00;8.03;;;;;;;13.88;100.00;102282.81;4999262;28;20066;-52
2022/10/09 06:40:43;;;;;;;15.73;7.88;;;;;;;13.79;100.00;102286.59;5013700;28;20260;-53
2022/10/09 06:43:08;;;;;;;16.47;8.10;;;;;;;13.83;100.00;102287.91;5002407;28;20056;-52
2022/10/09 06:45:36;;;;;;;18.73;8.67;;;;;;;13.81;100.00;102283.72;5001799;28;20066;-54
2022/10/09 06:48:02;;;;;;;20.83;8.23;;;;;;;14.07;100.00;102280.66;5003433;28;20130;-53
2022/10/09 06:50:27;;;;;;;20.53;9.47;;;;;;;14.02;100.00;102285.72;5016036;28;20064;-51
2022/10/09 06:52:53;;;;;;;18.90;8.20;;;;;;;14.08;100.00;102287.69;5000949;28;20067;-49
2022/10/09 06:55:18;;;;;;;18.13;8.07;;;;;;;14.18;100.00;102285.56;5016513;28;20102;-48
2022/10/09 06:57:43;;;;;;;19.60;8.60;;;;;;;14.19;100.00;102281.84;4998562;28;20050;-49
2022/10/09 07:00:09;;;;;;;17.57;8.23;;;;;;;14.24;100.00;102284.00;5001499;28;20072;-50
2022/10/09 07:02:36;;;;;;;;;;;;;;;14.31;100.00;102279.53;5005689;28;20096;-50
2022/10/09 07:05:01;;;;;;;23.23;8.27;;;;;;;14.30;100.00;102283.25;5009396;28;19913;-49
2022/10/09 07:07:27;;;;;;;23.50;9.73;;;;;;;14.26;100.00;102281.94;5017668;28;20058;-53
2022/10/09 07:09:53;;;;;;;15.67;7.30;;;;;;;14.38;100.00;102289.56;5005159;28;20039;-49
2022/10/09 07:12:19;;;;;;;17.50;7.72;;;;;;;14.50;100.00;102277.31;5015090;28;20066;-51
2022/10/09 07:14:44;;;;;;;15.60;6.10;;;;;;;14.57;100.00;102285.47;5012268;28;20068;-50
2022/10/09 07:17:10;;;;;;;22.57;7.70;;;;;;;14.61;100.00;102289.47;4998491;28;20122;-50
2022/10/09 07:19:35;;;;;;;19.77;7.47;;;;;;;14.48;100.00;102285.56;5016367;28;20289;-49
2022/10/09 07:22:01;;;;;;;17.40;7.80;;;;;;;14.65;100.00;102290.75;5005692;28;20031;-48
2022/10/09 07:24:26;;;;;;;18.43;8.10;;;;;;;14.72;100.00;102298.97;5011141;28;20042;-48
2022/10/09 07:26:55;;;;;;;16.43;7.03;;;;;;;14.82;100.00;102291.41;5011886;28;20034;-49
2022/10/09 07:29:21;;;;;;;13.75;7.13;;;;;;;14.68;100.00;102289.56;4998722;28;20035;-50
2022/10/09 07:31:47;;;;;;;19.83;6.85;;;;;;;14.27;100.00;102290.84;5007290;28;20046;-52
2022/10/09 07:34:13;;;;;;;26.50;8.40;;;;;;;14.79;100.00;102286.41;5010034;28;20059;-50
2022/10/09 07:36:38;;;;;;;18.50;7.00;;;;;;;14.87;100.00;102296.25;5008732;28;20292;-50
2022/10/09 07:39:05;;;;;;;27.50;7.68;;;;;;;14.84;100.00;102293.94;5002307;28;20035;-53
2022/10/09 07:41:30;;;;;;;18.77;7.68;;;;;;;15.01;100.00;102289.16;5004421;28;21717;-53
2022/10/09 07:43:56;;;;;;;16.20;6.70;;;;;;;15.24;100.00;102291.69;5008019;28;20039;-49
2022/10/09 07:46:23;;;;;;;11.13;6.28;;;;;;;15.11;100.00;102288.84;5011114;28;20031;-50
2022/10/09 07:48:49;;;;;;;14.98;6.05;;;;;;;15.25;100.00;102284.44;5008794;28;20056;-49
2022/10/09 07:51:16;;;;;;;16.40;6.83;;;;;;;15.09;100.00;102285.50;5002780;28;20102;-51
2022/10/09 07:53:42;;;;;;;18.50;6.43;;;;;;;15.52;100.00;102290.09;5005823;28;20300;-51
2022/10/09 07:56:13;;;;;;;19.58;6.45;;;;;;;15.23;100.00;102281.09;5005095;28;20076;-54
2022/10/09 07:58:39;;;;;;;18.63;6.20;;;;;;;15.49;100.00;102286.75;5004940;28;20037;-50
2022/10/09 08:01:06;;;;;;;16.73;6.40;;;;;;;15.50;100.00;102284.91;5019849;28;20051;-52
2022/10/09 08:03:33;;;;;;;22.25;6.18;;;;;;;15.78;100.00;102284.09;5009144;28;20284;-53
2022/10/09 08:05:59;;;;;;;25.33;7.35;;;;;;;15.86;100.00;102285.81;5009613;28;20038;-53
2022/10/09 08:08:24;;;;;;;13.97;6.63;;;;;;;15.86;100.00;102286.66;5006475;28;20065;-51
2022/10/09 08:10:50;;;;;;;20.00;6.32;;;;;;;16.26;100.00;102285.28;5014133;28;20045;-55
2022/10/09 08:13:15;;;;;;;14.33;6.53;;;;;;;16.49;100.00;102285.84;5006154;28;20039;-52
2022/10/09 08:15:43;;;;;;;20.73;6.17;;;;;;;16.42;100.00;102285.00;5007754;28;20041;-52
2022/10/09 08:18:09;;;;;;;12.57;5.20;;;;;;;16.91;100.00;102279.59;5000029;28;20045;-53
2022/10/09 08:20:35;;;;;;;17.03;5.40;;;;;;;17.07;100.00;102275.72;5010254;28;20264;-52
2022/10/09 08:23:00;;;;;;;14.20;4.90;;;;;;;17.41;100.00;102275.78;5020629;28;20292;-48
2022/10/09 08:25:26;;;;;;;13.77;5.13;;;;;;;17.39;100.00;102275.16;5006929;28;20276;-52
2022/10/09 08:27:52;;;;;;;18.60;5.18;;;;;;;17.20;100.00;102277.59;5011714;28;20032;-54
2022/10/09 08:30:18;;;;;;;18.83;5.60;;;;;;;18.07;100.00;102274.13;5000626;28;20102;-53
2022/10/09 08:32:44;;;;;;;12.70;5.28;;;;;;;18.62;100.00;102283.75;4998103;28;20302;-52
2022/10/09 08:35:10;;;;;;;23.60;4.93;;;;;;;18.95;100.00;102274.66;5012583;28;20036;-50
2022/10/09 08:37:36;;;;;;;10.52;4.97;;;;;;;19.86;100.00;102273.59;5008764;28;20038;-48
2022/10/09 08:40:03;;;;;;;15.63;5.55;;;;;;;20.13;100.00;102276.94;4999276;28;20061;-53
2022/10/09 08:42:44;;;;;;;9.80;4.40;;;;;;;20.45;100.00;102284.13;5009931;28;20035;-52
2022/10/09 08:45:15;;;;;;;20.70;5.47;;;;;;;20.77;100.00;102273.88;5003961;28;20304;-52
2022/10/09 08:47:55;;;;;;;9.30;5.00;;;;;;;21.56;100.00;102266.69;5002959;28;20279;-52
2022/10/09 08:50:28;;;;;;;11.93;4.53;;;;;;;22.40;96.90;102272.09;5006502;28;20276;-53
2022/10/09 08:53:03;;;;;;;11.17;4.40;;;;;;;22.64;95.03;102272.91;5010174;28;20030;-54
2022/10/09 08:55:36;;;;;;;9.87;4.27;;;;;;;22.33;94.45;102269.50;5003057;28;20046;-52
2022/10/09 08:58:04;;;;;;;17.07;4.90;;;;;;;22.48;92.63;102271.75;4997278;28;20035;-52
2022/10/09 09:00:48;;;;;;;12.17;4.47;;;;;;;22.75;88.97;102258.38;5002455;28;20034;-50
2022/10/09 09:03:29;;;;;;;13.70;4.23;;;;;;;22.75;91.73;102261.13;4997603;28;20030;-48
2022/10/09 09:06:13;;;;;;;12.07;4.80;;;;;;;23.51;85.44;102261.09;4998834;28;20030;-49
2022/10/09 09:08:44;;;;;;;12.00;4.00;;;;;;;24.02;80.13;102261.06;5005337;28;20095;-54
2022/10/09 09:11:21;;;;;;;11.47;4.27;;;;;;;23.78;79.87;102263.97;5005010;28;20045;-52
2022/10/09 09:14:11;;;;;;;17.57;4.60;;;;;;;24.69;76.78;102270.09;4997552;28;20083;-55
2022/10/09 09:16:43;;;;;;;14.77;4.87;;;;;;;24.95;73.44;102261.31;5001888;28;20035;-54
2022/10/09 09:19:23;;;;;;;11.07;4.53;;;;;;;25.21;71.98;102267.88;5005583;28;20035;-55
2022/10/09 09:21:51;;;;;;;9.43;3.93;;;;;;;25.80;67.51;102268.06;5003027;28;20039;-51
2022/10/09 09:24:26;;;;;;;11.17;4.17;;;;;;;26.00;66.88;102256.38;5006566;28;20030;-53
2022/10/09 09:26:58;;;;;;;11.80;3.92;;;;;;;26.71;63.52;102249.53;5006674;28;20042;-52
2022/10/09 09:29:25;;;;;;;13.07;4.40;;;;;;;26.74;61.69;102259.97;5005260;28;20046;-52
2022/10/09 09:31:55;;;;;;;10.07;4.43;;;;;;;27.29;58.51;102254.00;5018930;28;20035;-53
2022/10/09 09:34:27;;;;;;;15.77;4.50;;;;;;;27.50;57.45;102256.75;5009921;28;20046;-49
2022/10/09 09:36:56;;;;;;;10.53;4.93;;;;;;;27.97;55.71;102246.47;5012537;28;20036;-52
2022/10/09 09:39:27;;;;;;;9.87;4.60;;;;;;;28.30;53.42;102246.09;4998781;28;20097;-52
2022/10/09 09:42:04;;;;;;;12.33;4.63;;;;;;;28.24;52.33;102239.81;5002503;28;20102;-54
2022/10/09 09:44:32;;;;;;;9.90;3.75;;;;;;;27.27;53.15;102234.25;5004721;28;20031;-55
2022/10/09 09:46:57;;;;;;;11.70;4.77;;;;;;;28.37;50.67;102235.59;5013034;28;20103;-55
2022/10/09 09:49:28;;;;;;;;;;;;;;;28.32;49.43;102230.97;5006769;28;20067;-52
2022/10/09 09:51:56;;;;;;;9.53;4.07;;;;;;;28.16;49.71;102229.41;5004415;28;19925;-57
2022/10/09 09:54:25;;;;;;;10.50;3.80;;;;;;;29.83;47.06;102236.13;5007022;28;20035;-53
2022/10/09 09:56:55;;;;;;;8.10;3.67;;;;;;;30.35;45.29;102226.41;5005875;28;20030;-56
2022/10/09 09:59:37;;;;;;;13.60;4.23;;;;;;;31.07;43.33;102230.00;5002133;28;20026;-53
2022/10/09 10:02:24;;;;;;;6.95;3.58;;;;;;;30.71;42.77;102223.13;5008261;28;20030;-51
2022/10/09 10:04:58;;;;;;;10.82;3.88;;;;;;;29.91;43.52;102218.91;5008333;28;20027;-54
2022/10/09 10:07:28;;;;;;;11.00;4.20;;;;;;;30.55;42.88;102209.50;5003676;28;20039;-54
2022/10/09 10:10:14;;;;;;;13.50;3.72;;;;;;;31.31;41.37;102218.84;4988560;28;20034;-52
2022/10/09 10:12:55;;;;;;;15.68;4.32;;;;;;;31.89;40.36;102216.63;5000022;28;20027;-55
2022/10/09 10:15:27;;;;;;;10.30;5.30;;;;;;;32.58;38.23;102212.91;5005717;28;20035;-54
2022/10/09 10:18:14;;;;;;;12.05;3.75;;;;;;;31.57;37.94;102219.16;5008490;28;20041;-56
2022/10/09 10:20:50;;;;;;;8.95;3.63;;;;;;;32.01;37.72;102216.09;4997817;28;20027;-54
2022/10/09 10:23:39;;;;;;;11.25;3.17;;;;;;;30.36;38.89;102212.28;5006903;28;20034;-52
2022/10/09 10:26:30;;;;;;;8.25;3.80;;;;;;;29.95;39.19;102208.13;5008605;28;20101;-53
2022/10/09 10:29:16;;;;;;;12.82;3.97;;;;;;;31.08;39.30;102195.72;5007184;28;20103;-54
2022/10/09 10:31:47;;;;;;;9.23;3.13;;;;;;;31.45;37.74;102202.28;4999612;28;20090;-53
2022/10/09 10:34:41;;;;;;;14.98;3.83;;;;;;;30.77;38.20;102194.28;4996504;28;20038;-55
2022/10/09 10:37:13;;;;;;;6.03;3.28;;;;;;;31.42;36.48;102200.91;5011286;28;20039;-53
2022/10/09 10:39:51;;;;;;;10.15;3.88;;;;;;;32.19;35.81;102187.47;4999502;28;20038;-53
2022/10/09 10:42:25;;;;;;;8.60;3.05;;;;;;;32.37;35.27;102190.44;5020427;28;20030;-56
2022/10/09 10:45:09;;;;;;;8.93;3.20;;;;;;;33.24;34.79;102183.84;5007555;28;20038;-56
2022/10/09 10:47:38;;;;;;;7.53;3.25;;;;;;;32.96;34.25;102170.16;4997689;28;20039;-54
2022/10/09 10:50:08;;;;;;;10.75;3.75;;;;;;;32.54;34.33;102166.78;5003775;28;20026;-53
2022/10/09 10:53:02;;;;;;;7.10;4.03;;;;;;;33.08;32.83;102171.53;4997429;28;20030;-56
2022/10/09 10:55:46;;;;;;;12.23;3.85;;;;;;;33.50;32.39;102166.53;5012533;28;20053;-54
2022/10/09 10:58:23;;;;;;;9.07;3.40;;;;;;;33.06;32.48;102169.06;5005668;28;20042;-54
2022/10/09 11:01:07;;;;;;;6.75;2.63;;;;;;;33.85;31.99;102166.59;5003434;28;20027;-57
2022/10/09 11:03:40;;;;;;;10.60;2.50;;;;;;;35.20;30.50;102151.13;5006553;28;20031;-56
2022/10/09 11:06:26;;;;;;;9.57;2.92;;;;;;;35.84;29.54;102154.06;5005409;28;20045;-56
2022/10/09 11:09:17;;;;;;;8.27;3.63;;;;;;;35.37;29.74;102152.22;4995761;28;20057;-56
2022/10/09 11:11:51;;;;;;;10.68;3.13;;;;;;;34.50;30.02;102145.75;5001218;28;20050;-56
2022/10/09 11:14:45;;;;;;;7.15;2.75;;;;;;;34.83;29.54;102139.63;5011041;28;20058;-56
2022/10/09 11:17:27;;;;;;;8.13;2.70;;;;;;;34.87;29.16;102129.50;5001371;28;20039;-55
2022/10/09 11:20:21;;;;;;;7.20;3.10;;;;;;;36.37;28.21;102134.19;4994946;28;20079;-52
2022/10/09 11:23:09;;;;;;;8.93;3.63;;;;;;;35.79;28.57;102130.06;5015167;28;20028;-56